Time;durP1;ratioP1;P1;durP2;ratioP2;P2;SDS_P1;SDS_P2;PMS_P1;PMS_P2;Temp;Humidity;BMP_temperature;BMP_pressure;BME280_temperature;BME280_humidity;BME280_pressure;Samples;Min_cycle;Max_cycle;Signal;HPM_P1;HPM_P2
2023/09/12 00:02:23;;;;;;;30.05;23.23;;;20.60;99.90;;;;;;5066609;28;20190;-73
2023/09/12 00:04:50;;;;;;;27.77;21.48;;;20.60;99.90;;;;;;5066493;28;20032;-73
2023/09/12 00:07:16;;;;;;;26.83;22.65;;;20.50;99.90;;;;;;5048028;28;20114;-73
2023/09/12 00:09:42;;;;;;;31.65;24.33;;;20.60;99.90;;;;;;5065818;28;20032;-71
2023/09/12 00:12:08;;;;;;;31.10;23.88;;;20.60;99.90;;;;;;5065548;28;20064;-71
2023/09/12 00:14:33;;;;;;;32.88;26.83;;;20.50;99.90;;;;;;5065824;28;20048;-71
2023/09/12 00:17:00;;;;;;;34.83;25.88;;;20.60;99.90;;;;;;5066461;28;20040;-71
2023/09/12 00:19:25;;;;;;;30.50;23.38;;;20.50;99.90;;;;;;5065734;28;20564;-71
2023/09/12 00:21:53;;;;;;;32.35;26.08;;;20.50;99.90;;;;;;5065017;28;20045;-71
2023/09/12 00:24:18;;;;;;;29.95;24.27;;;20.50;99.90;;;;;;5064422;28;20116;-71
2023/09/12 00:26:44;;;;;;;33.05;24.63;;;20.50;99.90;;;;;;5065091;28;20123;-71
2023/09/12 00:29:10;;;;;;;29.10;23.38;;;20.50;99.90;;;;;;5068218;28;20072;-71
2023/09/12 00:31:35;;;;;;;33.80;24.83;;;20.50;99.90;;;;;;5057919;28;20070;-71
2023/09/12 00:34:01;;;;;;;30.90;25.40;;;20.40;99.90;;;;;;5058224;28;20118;-71
2023/09/12 00:36:27;;;;;;;29.65;24.83;;;20.50;99.90;;;;;;5060836;28;20102;-71
2023/09/12 00:38:53;;;;;;;32.13;24.23;;;20.40;99.90;;;;;;5062567;28;20113;-71
2023/09/12 00:41:18;;;;;;;31.23;23.88;;;20.40;99.90;;;;;;5057367;28;20036;-71
2023/09/12 00:43:44;;;;;;;31.98;23.83;;;20.40;99.90;;;;;;5066618;28;20041;-71
2023/09/12 00:46:10;;;;;;;29.95;23.95;;;20.40;99.90;;;;;;5048491;28;20374;-71
2023/09/12 00:48:37;;;;;;;30.10;25.02;;;20.40;99.90;;;;;;5067514;28;20109;-70
2023/09/12 00:51:04;;;;;;;28.10;23.35;;;20.40;99.90;;;;;;5048591;28;20072;-71
2023/09/12 00:53:30;;;;;;;30.65;24.08;;;20.30;99.90;;;;;;5067654;28;20690;-71
2023/09/12 00:55:58;;;;;;;30.05;24.10;;;20.30;99.90;;;;;;5068180;28;20044;-70
2023/09/12 00:58:25;;;;;;;30.77;24.23;;;20.30;99.90;;;;;;5069248;28;20397;-71
2023/09/12 01:00:51;;;;;;;31.27;24.48;;;20.30;99.90;;;;;;5064470;28;20044;-70
2023/09/12 01:03:17;;;;;;;30.20;24.70;;;20.20;99.90;;;;;;5065236;28;20041;-70
2023/09/12 01:05:44;;;;;;;30.90;24.77;;;20.20;99.90;;;;;;5066636;28;20127;-70
2023/09/12 01:08:10;;;;;;;30.65;22.73;;;20.20;99.90;;;;;;5066665;28;20489;-70
2023/09/12 01:10:36;;;;;;;28.13;23.40;;;20.20;99.90;;;;;;5064607;28;20806;-71
2023/09/12 01:13:03;;;;;;;33.13;25.85;;;20.20;99.90;;;;;;5066871;28;20504;-71
2023/09/12 01:15:28;;;;;;;28.15;24.98;;;20.20;99.90;;;;;;5063004;28;20513;-71
2023/09/12 01:17:55;;;;;;;32.53;25.42;;;20.20;99.90;;;;;;5065199;28;20048;-70
2023/09/12 01:20:31;;;;;;;31.67;23.75;;;20.10;99.90;;;;;;5068616;28;20045;-71
2023/09/12 01:23:18;;;;;;;30.63;25.02;;;20.10;99.90;;;;;;5059944;28;20418;-70
2023/09/12 01:25:53;;;;;;;29.15;23.63;;;20.10;99.90;;;;;;5059509;28;20032;-71
2023/09/12 01:28:22;;;;;;;29.17;24.15;;;20.00;99.90;;;;;;5057980;28;20044;-71
2023/09/12 01:30:50;;;;;;;31.20;25.13;;;20.00;99.90;;;;;;5055767;28;20456;-71
2023/09/12 01:33:16;;;;;;;28.92;24.55;;;20.00;99.90;;;;;;5061638;28;20053;-70
2023/09/12 01:35:43;;;;;;;34.10;24.83;;;20.00;99.90;;;;;;5057875;28;20047;-70
2023/09/12 01:38:09;;;;;;;28.67;23.50;;;19.90;99.90;;;;;;5058576;28;20056;-70
2023/09/12 01:40:43;;;;;;;34.20;26.50;;;19.90;99.90;;;;;;5060179;28;20083;-71
2023/09/12 01:43:10;;;;;;;33.65;25.15;;;19.90;99.90;;;;;;5049433;28;20428;-71
2023/09/12 01:45:36;;;;;;;31.50;24.85;;;19.90;99.90;;;;;;5061905;28;20037;-71
2023/09/12 01:48:05;;;;;;;27.52;23.60;;;19.80;99.90;;;;;;5063770;28;20048;-71
2023/09/12 01:50:32;;;;;;;32.58;26.05;;;19.80;99.90;;;;;;5063906;28;20051;-70
2023/09/12 01:52:59;;;;;;;32.63;25.73;;;19.90;99.90;;;;;;5048456;28;20037;-71
2023/09/12 01:55:26;;;;;;;33.58;26.83;;;19.80;99.90;;;;;;5055554;28;20044;-71
2023/09/12 01:57:52;;;;;;;33.92;26.30;;;19.80;99.90;;;;;;5060802;28;20124;-71
2023/09/12 02:00:19;;;;;;;34.10;26.52;;;19.80;99.90;;;;;;5058886;28;20128;-70
2023/09/12 02:02:45;;;;;;;32.30;26.52;;;19.80;99.90;;;;;;5057558;28;20095;-70
2023/09/12 02:05:18;;;;;;;34.30;25.48;;;19.80;99.90;;;;;;5053827;28;20672;-70
2023/09/12 02:07:44;;;;;;;32.88;24.52;;;19.80;99.90;;;;;;5065019;28;20044;-71
2023/09/12 02:10:11;;;;;;;31.83;24.77;;;19.70;99.90;;;;;;5064806;28;20051;-71
2023/09/12 02:12:37;;;;;;;36.28;27.65;;;19.70;99.90;;;;;;5057730;28;20044;-71
2023/09/12 02:15:03;;;;;;;32.53;25.58;;;19.70;99.90;;;;;;5059059;28;20047;-71
2023/09/12 02:17:29;;;;;;;33.20;25.65;;;19.70;99.90;;;;;;5060849;28;20032;-70
2023/09/12 02:19:54;;;;;;;37.20;26.33;;;19.70;99.90;;;;;;5057843;28;20045;-70
2023/09/12 02:22:20;;;;;;;28.73;24.27;;;19.60;99.90;;;;;;5057887;28;20532;-70
2023/09/12 02:24:46;;;;;;;30.40;25.20;;;19.60;99.90;;;;;;5062387;28;20053;-70
2023/09/12 02:27:12;;;;;;;31.63;25.20;;;19.60;99.90;;;;;;5055082;28;20087;-71
2023/09/12 02:29:39;;;;;;;30.20;24.10;;;19.60;99.90;;;;;;5060544;28;20493;-70
2023/09/12 02:32:05;;;;;;;32.13;24.20;;;19.60;99.90;;;;;;5064512;28;20082;-71
2023/09/12 02:34:32;;;;;;;33.70;26.13;;;19.50;99.90;;;;;;5046682;28;20406;-71
2023/09/12 02:36:57;;;;;;;35.17;26.85;;;19.50;99.90;;;;;;5056213;28;20481;-71
2023/09/12 02:39:23;;;;;;;37.45;30.38;;;19.50;99.90;;;;;;5065820;28;20083;-70
2023/09/12 02:41:49;;;;;;;35.15;29.17;;;19.50;99.90;;;;;;5065567;28;20040;-70
2023/09/12 02:44:14;;;;;;;39.25;29.23;;;19.40;99.90;;;;;;5062350;28;20041;-71
2023/09/12 02:46:40;;;;;;;38.35;29.15;;;19.40;99.90;;;;;;5047446;28;20120;-71
2023/09/12 02:49:06;;;;;;;38.25;28.67;;;19.40;99.90;;;;;;5058144;28;20106;-70
2023/09/12 02:51:31;;;;;;;36.53;27.50;;;19.40;99.90;;;;;;5065190;28;20044;-70
2023/09/12 02:53:57;;;;;;;43.80;29.85;;;19.30;99.90;;;;;;5062330;28;20549;-70
2023/09/12 02:56:23;;;;;;;34.55;27.70;;;19.30;99.90;;;;;;5061756;28;20033;-70
2023/09/12 02:58:49;;;;;;;35.60;27.83;;;19.30;99.90;;;;;;5057002;28;20040;-70
2023/09/12 03:01:19;;;;;;;36.85;27.77;;;19.30;99.90;;;;;;5058540;28;20041;-71
2023/09/12 03:03:51;;;;;;;37.65;28.98;;;19.30;99.90;;;;;;5064671;28;20089;-71
2023/09/12 03:06:18;;;;;;;35.15;28.15;;;19.30;99.90;;;;;;5062817;28;20097;-70
2023/09/12 03:08:44;;;;;;;37.22;28.50;;;19.30;99.90;;;;;;5065935;28;20049;-72
2023/09/12 03:11:10;;;;;;;37.28;28.70;;;19.20;99.90;;;;;;5050397;28;20044;-69
2023/09/12 03:13:37;;;;;;;37.88;29.15;;;19.20;99.90;;;;;;5062708;28;20048;-69
2023/09/12 03:16:03;;;;;;;35.55;27.73;;;19.20;99.90;;;;;;5068071;28;20817;-69
2023/09/12 03:18:30;;;;;;;33.97;26.75;;;19.20;99.90;;;;;;5067900;28;20047;-69
2023/09/12 03:20:56;;;;;;;37.50;29.02;;;19.10;99.90;;;;;;5069384;28;20041;-69
2023/09/12 03:23:21;;;;;;;31.90;26.60;;;19.10;99.90;;;;;;5070002;28;20032;-70
2023/09/12 03:25:47;;;;;;;33.97;26.70;;;19.10;99.90;;;;;;5070040;28;20459;-69
2023/09/12 03:28:13;;;;;;;37.47;28.45;;;19.10;99.90;;;;;;5068740;28;20102;-70
2023/09/12 03:30:39;;;;;;;39.05;28.13;;;19.10;99.90;;;;;;5064841;28;20061;-70
2023/09/12 03:33:05;;;;;;;32.42;25.95;;;19.00;99.90;;;;;;5064380;28;20044;-70
2023/09/12 03:35:33;;;;;;;34.33;26.30;;;19.00;99.90;;;;;;5056576;28;20040;-69
2023/09/12 03:37:59;;;;;;;35.97;26.70;;;19.10;99.90;;;;;;5068928;28;20044;-70
2023/09/12 03:40:25;;;;;;;42.47;30.42;;;19.00;99.90;;;;;;5068226;28;20044;-70
2023/09/12 03:42:51;;;;;;;36.50;26.23;;;19.00;99.90;;;;;;5050968;28;20041;-70
2023/09/12 03:45:17;;;;;;;36.58;28.13;;;19.00;99.90;;;;;;5063243;28;20044;-70
2023/09/12 03:47:46;;;;;;;38.33;27.75;;;19.00;99.90;;;;;;5052491;28;20052;-70
2023/09/12 03:50:12;;;;;;;38.88;28.98;;;19.00;99.90;;;;;;5068445;28;20540;-70
2023/09/12 03:52:38;;;;;;;38.70;28.52;;;19.00;99.90;;;;;;5069649;28;20044;-70
2023/09/12 03:55:04;;;;;;;34.83;27.75;;;19.00;99.90;;;;;;5056612;28;20131;-69
2023/09/12 03:57:30;;;;;;;37.33;29.10;;;18.90;99.90;;;;;;5049067;28;20055;-70
2023/09/12 03:59:56;;;;;;;38.63;27.70;;;18.90;99.90;;;;;;5065467;28;20036;-70
2023/09/12 04:02:21;;;;;;;37.08;28.13;;;18.90;99.90;;;;;;5066633;28;20462;-70
2023/09/12 04:04:47;;;;;;;35.05;27.55;;;18.80;99.90;;;;;;5068386;28;20449;-70
2023/09/12 04:07:13;;;;;;;35.03;26.75;;;18.70;99.90;;;;;;5067115;28;20042;-70
2023/09/12 04:09:39;;;;;;;32.45;26.20;;;18.80;99.90;;;;;;5067849;28;20128;-70
2023/09/12 04:12:06;;;;;;;35.83;26.67;;;18.80;99.90;;;;;;5065307;28;20098;-70
2023/09/12 04:14:32;;;;;;;32.78;25.05;;;18.90;99.90;;;;;;5068168;28;20394;-70
2023/09/12 04:16:58;;;;;;;34.00;25.35;;;18.80;99.90;;;;;;5065290;28;20048;-70
2023/09/12 04:19:25;;;;;;;32.95;25.45;;;18.80;99.90;;;;;;5058012;28;20091;-70
2023/09/12 04:21:51;;;;;;;33.67;26.40;;;18.80;99.90;;;;;;5048856;28;20041;-70
2023/09/12 04:24:17;;;;;;;34.20;25.38;;;18.80;99.90;;;;;;5062779;28;20048;-70
2023/09/12 04:26:44;;;;;;;36.03;24.05;;;18.80;99.90;;;;;;5059983;28;20055;-70
2023/09/12 04:29:10;;;;;;;29.88;24.02;;;18.80;99.90;;;;;;5038802;28;20041;-70
2023/09/12 04:31:36;;;;;;;31.30;24.05;;;18.70;99.90;;;;;;5063726;28;20044;-70
2023/09/12 04:34:02;;;;;;;32.15;25.17;;;18.70;99.90;;;;;;5065828;28;20622;-70
2023/09/12 04:36:28;;;;;;;32.75;25.00;;;18.70;99.90;;;;;;5058077;28;20045;-70
2023/09/12 04:38:53;;;;;;;30.08;23.98;;;18.60;99.90;;;;;;5053206;28;20123;-70
2023/09/12 04:41:19;;;;;;;28.20;23.92;;;18.70;99.90;;;;;;5054032;28;20040;-70
2023/09/12 04:43:45;;;;;;;29.75;23.63;;;18.70;99.90;;;;;;5060194;28;20048;-70
2023/09/12 04:46:11;;;;;;;31.98;23.23;;;18.60;99.90;;;;;;5062938;28;20047;-70
2023/09/12 04:48:38;;;;;;;29.50;22.67;;;18.60;99.90;;;;;;5058539;28;20177;-70
2023/09/12 04:51:04;;;;;;;28.52;23.25;;;18.50;99.90;;;;;;5050149;28;20047;-70
2023/09/12 04:53:36;;;;;;;29.15;23.25;;;18.50;99.90;;;;;;5056387;28;20580;-70
2023/09/12 04:56:03;;;;;;;30.45;23.67;;;18.50;99.90;;;;;;5055591;28;20052;-70
2023/09/12 04:58:28;;;;;;;30.85;24.52;;;18.50;99.90;;;;;;5052069;28;20036;-70
2023/09/12 05:00:55;;;;;;;27.63;23.38;;;18.50;99.90;;;;;;5056870;28;20044;-70
2023/09/12 05:03:21;;;;;;;177.48;27.08;;;18.50;99.90;;;;;;5052067;28;20052;-70
2023/09/12 05:05:48;;;;;;;113.28;25.50;;;18.50;99.90;;;;;;5065508;28;20040;-70
2023/09/12 05:08:14;;;;;;;65.00;24.45;;;18.50;99.90;;;;;;5047220;28;20055;-69
2023/09/12 05:10:40;;;;;;;61.35;25.45;;;18.50;99.90;;;;;;5049978;28;20068;-70
2023/09/12 05:13:06;;;;;;;37.30;26.73;;;18.50;99.90;;;;;;5050703;28;20045;-70
2023/09/12 05:15:31;;;;;;;35.55;26.52;;;18.40;99.90;;;;;;5051658;28;20043;-70
2023/09/12 05:17:57;;;;;;;41.70;29.20;;;18.50;99.90;;;;;;5053270;28;20044;-73
2023/09/12 05:20:23;;;;;;;42.17;29.85;;;18.40;99.90;;;;;;5053216;28;20514;-71
2023/09/12 05:22:48;;;;;;;86.72;33.70;;;18.40;99.90;;;;;;5047632;28;20048;-70
2023/09/12 05:25:14;;;;;;;63.78;34.30;;;18.40;99.90;;;;;;5044202;28;20041;-70
2023/09/12 05:27:40;;;;;;;61.08;32.03;;;18.40;99.90;;;;;;5049188;28;20490;-70
2023/09/12 05:30:06;;;;;;;53.03;33.53;;;18.40;99.90;;;;;;5045742;28;20587;-70
2023/09/12 05:32:32;;;;;;;83.22;33.97;;;18.40;99.90;;;;;;5047283;28;20095;-70
2023/09/12 05:34:58;;;;;;;53.92;34.63;;;18.40;99.90;;;;;;5055252;28;20048;-71
2023/09/12 05:37:23;;;;;;;52.05;35.20;;;18.40;99.90;;;;;;5036454;28;20128;-70
2023/09/12 05:39:49;;;;;;;51.85;34.10;;;18.40;99.90;;;;;;5061921;28;20060;-71
2023/09/12 05:42:20;;;;;;;81.57;33.80;;;18.30;99.90;;;;;;5058599;28;20489;-71
2023/09/12 05:44:49;;;;;;;50.25;33.25;;;18.30;99.90;;;;;;5060145;28;20044;-70
2023/09/12 05:47:15;;;;;;;68.45;35.42;;;18.30;99.90;;;;;;5051499;28;20064;-70
2023/09/12 05:49:41;;;;;;;81.35;35.47;;;18.40;99.90;;;;;;5065278;28;20056;-70
2023/09/12 05:52:07;;;;;;;69.10;36.08;;;18.40;99.90;;;;;;5061635;28;20135;-70
2023/09/12 05:54:33;;;;;;;56.35;34.78;;;18.40;99.90;;;;;;5061010;28;20749;-71
2023/09/12 05:56:58;;;;;;;69.93;34.72;;;18.40;99.90;;;;;;5057119;28;20060;-70
2023/09/12 05:59:24;;;;;;;85.75;35.97;;;18.40;99.90;;;;;;5070894;28;20037;-71
2023/09/12 06:01:52;;;;;;;67.35;37.85;;;18.40;99.90;;;;;;5059892;28;20147;-71
2023/09/12 06:04:18;;;;;;;59.08;34.65;;;18.40;99.90;;;;;;5058027;28;20041;-71
2023/09/12 06:06:43;;;;;;;119.82;36.65;;;18.40;99.90;;;;;;5063336;28;20036;-71
2023/09/12 06:09:09;;;;;;;64.88;35.45;;;18.40;99.90;;;;;;5055068;28;20040;-71
2023/09/12 06:11:38;;;;;;;80.47;36.60;;;18.40;99.90;;;;;;5045177;28;20040;-71
2023/09/12 06:14:04;;;;;;;57.13;36.53;;;18.40;99.90;;;;;;5044590;28;20614;-70
2023/09/12 06:16:30;;;;;;;53.17;34.85;;;18.40;99.90;;;;;;5042446;28;20044;-71
2023/09/12 06:18:56;;;;;;;75.68;37.25;;;18.40;99.90;;;;;;5046881;28;20132;-71
2023/09/12 06:21:22;;;;;;;74.10;37.85;;;18.40;99.90;;;;;;5043521;28;21425;-71
2023/09/12 06:24:07;;;;;;;64.78;37.72;;;18.40;99.90;;;;;;5059879;28;20043;-71
2023/09/12 06:26:33;;;;;;;70.22;36.30;;;18.40;99.90;;;;;;5053540;28;20053;-69
2023/09/12 06:28:59;;;;;;;57.17;36.60;;;18.40;99.90;;;;;;5049106;28;20064;-70
2023/09/12 06:31:24;;;;;;;58.13;35.72;;;18.40;99.90;;;;;;5065261;28;20051;-69
2023/09/12 06:33:50;;;;;;;63.83;35.85;;;18.40;99.90;;;;;;5058597;28;20041;-70
2023/09/12 06:36:16;;;;;;;68.93;38.38;;;18.40;99.90;;;;;;5053752;28;21952;-69
2023/09/12 06:38:42;;;;;;;71.13;38.42;;;18.40;99.90;;;;;;5062270;28;20051;-69
2023/09/12 06:41:07;;;;;;;64.78;39.05;;;18.50;99.90;;;;;;5059562;28;20596;-69
2023/09/12 06:43:33;;;;;;;59.20;37.38;;;18.40;99.90;;;;;;5086272;28;20052;-69
2023/09/12 06:45:59;;;;;;;53.97;35.35;;;18.40;99.90;;;;;;5055793;28;20486;-69
2023/09/12 06:48:25;;;;;;;53.03;35.53;;;18.40;99.90;;;;;;5059088;28;20509;-69
2023/09/12 06:50:50;;;;;;;59.28;36.22;;;18.40;99.90;;;;;;5056981;28;20040;-69
2023/09/12 06:53:16;;;;;;;82.10;39.10;;;18.50;99.90;;;;;;5057742;28;20055;-70
2023/09/12 06:55:42;;;;;;;57.17;35.80;;;18.50;99.90;;;;;;5059492;28;20386;-70
2023/09/12 06:58:07;;;;;;;56.58;35.90;;;18.50;99.90;;;;;;5057477;28;20071;-69
2023/09/12 07:00:33;;;;;;;57.10;36.38;;;18.50;99.90;;;;;;5062327;28;20036;-70
2023/09/12 07:02:59;;;;;;;54.30;36.03;;;18.60;99.90;;;;;;5053577;28;20453;-69
2023/09/12 07:05:25;;;;;;;54.53;36.88;;;18.50;99.90;;;;;;5086598;28;20040;-70
2023/09/12 07:07:52;;;;;;;53.00;35.80;;;18.50;99.90;;;;;;5064153;28;20036;-70
2023/09/12 07:10:17;;;;;;;57.35;35.30;;;18.60;99.90;;;;;;5058090;28;20092;-69
2023/09/12 07:12:43;;;;;;;63.42;35.22;;;18.60;99.90;;;;;;5048995;28;20186;-70
2023/09/12 07:15:10;;;;;;;55.25;35.63;;;18.60;99.90;;;;;;5050229;28;20584;-71
2023/09/12 07:17:35;;;;;;;58.92;37.33;;;18.60;99.90;;;;;;5049949;28;20036;-70
2023/09/12 07:20:01;;;;;;;58.25;36.88;;;18.60;99.90;;;;;;5066615;28;20102;-70
2023/09/12 07:22:27;;;;;;;55.47;36.17;;;18.60;99.90;;;;;;5046975;28;20824;-70
2023/09/12 07:24:54;;;;;;;52.40;35.08;;;18.70;99.90;;;;;;5059848;28;20043;-70
2023/09/12 07:27:19;;;;;;;60.22;36.97;;;18.70;99.90;;;;;;5047806;28;20123;-70
2023/09/12 07:29:45;;;;;;;63.30;36.20;;;18.70;99.90;;;;;;5037784;28;20048;-70
2023/09/12 07:32:11;;;;;;;61.05;36.55;;;18.80;99.90;;;;;;5048755;28;20048;-72
2023/09/12 07:34:37;;;;;;;62.67;38.58;;;18.70;99.90;;;;;;5044612;28;20052;-71
2023/09/12 07:37:03;;;;;;;60.15;38.00;;;18.80;99.90;;;;;;5041559;28;20474;-70
2023/09/12 07:39:29;;;;;;;58.42;36.78;;;18.70;99.90;;;;;;5044717;28;20155;-71
2023/09/12 07:41:55;;;;;;;55.10;35.53;;;18.80;99.90;;;;;;5045629;28;20052;-70
2023/09/12 07:44:20;;;;;;;53.55;34.72;;;18.80;99.90;;;;;;5037734;28;20044;-70
2023/09/12 07:46:46;;;;;;;58.97;37.75;;;18.80;99.90;;;;;;5044185;28;20048;-70
2023/09/12 07:49:12;;;;;;;56.15;37.65;;;18.80;99.90;;;;;;5044631;28;20134;-70
2023/09/12 07:51:38;;;;;;;58.28;37.03;;;18.80;99.90;;;;;;5045401;28;20051;-71
2023/09/12 07:54:04;;;;;;;64.25;37.22;;;18.80;99.90;;;;;;5045688;28;20052;-70
2023/09/12 07:56:29;;;;;;;60.83;36.35;;;18.80;99.90;;;;;;5045659;28;20099;-70
2023/09/12 07:58:57;;;;;;;62.20;38.47;;;18.90;99.90;;;;;;5040563;28;20141;-70
2023/09/12 08:01:23;;;;;;;60.95;38.20;;;18.90;99.90;;;;;;5043830;28;20702;-70
2023/09/12 08:03:48;;;;;;;63.38;37.90;;;18.90;99.90;;;;;;5043757;28;20037;-70
2023/09/12 08:06:14;;;;;;;65.57;38.97;;;19.00;99.90;;;;;;5045783;28;20040;-70
2023/09/12 08:08:40;;;;;;;68.43;42.17;;;19.00;99.90;;;;;;5048766;28;20045;-70
2023/09/12 08:11:05;;;;;;;74.13;42.65;;;19.00;99.90;;;;;;5046185;28;20094;-70
2023/09/12 08:13:31;;;;;;;69.88;40.55;;;19.00;99.90;;;;;;5045464;28;20051;-70
2023/09/12 08:15:57;;;;;;;69.47;40.78;;;19.00;99.90;;;;;;5041565;28;20052;-70
2023/09/12 08:18:27;;;;;;;73.35;42.90;;;19.00;99.90;;;;;;5041702;28;20205;-71
2023/09/12 08:20:53;;;;;;;74.30;42.97;;;19.00;99.90;;;;;;5045708;28;20145;-71
2023/09/12 08:23:19;;;;;;;81.95;44.80;;;19.10;99.90;;;;;;5058859;28;20136;-70
2023/09/12 08:25:45;;;;;;;77.75;44.13;;;19.10;99.90;;;;;;5043128;28;20080;-70
2023/09/12 08:28:11;;;;;;;82.65;45.10;;;19.20;99.90;;;;;;5043426;28;20044;-70
2023/09/12 08:30:36;;;;;;;77.38;44.28;;;19.20;99.90;;;;;;5045402;28;20060;-70
2023/09/12 08:33:03;;;;;;;72.47;44.13;;;19.20;99.90;;;;;;5046024;28;20110;-70
2023/09/12 08:35:29;;;;;;;72.78;42.58;;;19.30;99.90;;;;;;5024880;28;20048;-70
2023/09/12 08:37:55;;;;;;;68.28;42.55;;;19.30;99.90;;;;;;5050129;28;20460;-71
2023/09/12 08:40:21;;;;;;;72.68;43.40;;;19.40;99.90;;;;;;5051419;28;20379;-70
2023/09/12 08:42:48;;;;;;;73.78;44.08;;;19.40;99.90;;;;;;5044993;28;20102;-70
2023/09/12 08:45:16;;;;;;;74.68;44.08;;;19.40;99.90;;;;;;5044234;28;20056;-70
2023/09/12 08:47:45;;;;;;;67.30;42.75;;;19.50;99.90;;;;;;5045582;28;20079;-70
2023/09/12 08:50:16;;;;;;;64.53;40.75;;;19.50;99.90;;;;;;5045643;28;20063;-70
2023/09/12 08:52:43;;;;;;;61.97;40.88;;;19.70;99.90;;;;;;5048693;28;20044;-70
2023/09/12 08:55:10;;;;;;;69.97;44.22;;;19.50;99.90;;;;;;5050313;28;20056;-70
2023/09/12 08:57:38;;;;;;;70.05;45.40;;;19.60;99.90;;;;;;5050683;28;20135;-70
2023/09/12 09:00:06;;;;;;;68.28;41.20;;;19.50;99.90;;;;;;5048422;28;20047;-69
2023/09/12 09:02:38;;;;;;;69.97;44.13;;;19.70;99.90;;;;;;5059219;28;20732;-70
2023/09/12 09:05:05;;;;;;;69.88;43.30;;;19.70;99.90;;;;;;5053137;28;20109;-70
2023/09/12 09:07:38;;;;;;;68.85;43.30;;;19.80;99.90;;;;;;5061227;28;20054;-70
2023/09/12 09:10:10;;;;;;;64.80;41.90;;;19.80;99.90;;;;;;5058074;28;20056;-70
2023/09/12 09:12:39;;;;;;;67.90;42.63;;;19.80;99.90;;;;;;5057385;28;20049;-70
2023/09/12 09:15:27;;;;;;;68.18;43.95;;;19.80;99.90;;;;;;5052795;28;20391;-70
2023/09/12 09:17:55;;;;;;;67.20;42.50;;;19.80;99.90;;;;;;5055305;28;20067;-70
2023/09/12 09:20:29;;;;;;;67.25;41.97;;;19.90;99.90;;;;;;5054493;28;20050;-70
2023/09/12 09:23:06;;;;;;;67.07;40.47;;;19.90;99.90;;;;;;5055502;28;20051;-69
2023/09/12 09:25:43;;;;;;;69.30;44.38;;;19.90;99.90;;;;;;5053155;28;20906;-70
2023/09/12 09:28:20;;;;;;;70.13;43.33;;;20.00;99.90;;;;;;5056174;28;20290;-70
2023/09/12 09:30:48;;;;;;;64.70;42.63;;;20.00;99.90;;;;;;5054995;28;20098;-70
2023/09/12 09:33:15;;;;;;;71.32;43.90;;;20.00;99.90;;;;;;5054402;28;20052;-69
2023/09/12 09:35:47;;;;;;;71.85;43.03;;;20.00;99.90;;;;;;5053329;28;20084;-70
2023/09/12 09:38:18;;;;;;;68.03;43.92;;;20.10;99.90;;;;;;5056294;28;20485;-70
2023/09/12 09:40:45;;;;;;;70.55;43.47;;;20.20;99.90;;;;;;5057191;28;20451;-71
2023/09/12 09:43:13;;;;;;;69.70;43.65;;;20.20;99.90;;;;;;5056200;28;20063;-70
2023/09/12 09:45:46;;;;;;;65.32;41.90;;;20.30;99.90;;;;;;5051124;28;20513;-71
2023/09/12 09:48:22;;;;;;;66.38;42.53;;;20.40;99.90;;;;;;5053716;28;20659;-70
2023/09/12 09:50:48;;;;;;;63.17;39.28;;;20.50;99.90;;;;;;5057087;28;20048;-70
2023/09/12 09:53:15;;;;;;;64.18;41.10;;;20.60;99.90;;;;;;5054361;28;20071;-70
2023/09/12 09:55:42;;;;;;;60.20;40.67;;;20.60;99.90;;;;;;5050893;28;20052;-71
2023/09/12 09:58:08;;;;;;;57.88;39.28;;;20.70;99.90;;;;;;5052014;28;20056;-70
2023/09/12 10:00:37;;;;;;;58.10;38.88;;;20.70;99.90;;;;;;5064061;28;20051;-70
2023/09/12 10:03:08;;;;;;;54.75;37.92;;;20.80;99.90;;;;;;5062813;28;20106;-70
2023/09/12 10:05:37;;;;;;;53.58;34.55;;;20.80;99.90;;;;;;5059643;28;20047;-71
2023/09/12 10:08:06;;;;;;;56.30;37.50;;;20.90;99.90;;;;;;5059469;28;20706;-71
2023/09/12 10:10:34;;;;;;;56.63;37.08;;;20.90;99.90;;;;;;5051136;28;20359;-71
2023/09/12 10:13:03;;;;;;;56.58;36.78;;;21.00;99.90;;;;;;5051626;28;20071;-70
2023/09/12 10:15:33;;;;;;;53.97;35.45;;;21.00;99.90;;;;;;5049460;28;20131;-71
2023/09/12 10:18:04;;;;;;;47.97;33.95;;;21.10;99.90;;;;;;5052830;28;20417;-70
2023/09/12 10:20:48;;;;;;;;;;;21.20;99.90;;;;;;5052823;28;20074;-71
2023/09/12 10:23:23;;;;;;;48.35;33.45;;;21.20;99.90;;;;;;5048541;28;20164;-71
2023/09/12 10:25:50;;;;;;;45.67;32.70;;;21.30;99.90;;;;;;5042945;28;20530;-72
2023/09/12 10:28:17;;;;;;;47.22;32.17;;;21.30;99.90;;;;;;5052510;28;20405;-72
2023/09/12 10:30:44;;;;;;;50.08;33.70;;;21.50;99.90;;;;;;5051330;28;20040;-72
2023/09/12 10:33:13;;;;;;;53.30;33.97;;;21.50;99.90;;;;;;5053042;28;20429;-71
2023/09/12 10:35:40;;;;;;;47.58;32.28;;;21.60;99.90;;;;;;5046687;28;20390;-71
2023/09/12 10:38:08;;;;;;;43.25;29.95;;;21.60;99.90;;;;;;5050349;28;20483;-71
2023/09/12 10:40:38;;;;;;;42.83;28.88;;;21.70;99.90;;;;;;5050476;28;20067;-71
2023/09/12 10:43:05;;;;;;;41.85;26.15;;;21.70;99.90;;;;;;5054554;28;20409;-71
2023/09/12 10:45:36;;;;;;;38.50;25.45;;;21.80;99.90;;;;;;5045885;28;20053;-71
2023/09/12 10:48:02;;;;;;;33.63;23.58;;;21.80;99.90;;;;;;5048115;28;20413;-71
2023/09/12 10:50:29;;;;;;;35.60;24.10;;;21.80;99.90;;;;;;5048811;28;20546;-71
2023/09/12 10:52:54;;;;;;;42.03;26.30;;;21.90;99.90;;;;;;5052986;28;20044;-71
2023/09/12 10:55:20;;;;;;;37.78;26.80;;;22.00;99.90;;;;;;5050860;28;20047;-71
2023/09/12 10:58:07;;;;;;;37.03;25.80;;;22.00;99.90;;;;;;5055332;28;20049;-70
2023/09/12 11:00:34;;;;;;;34.90;23.55;;;22.00;99.90;;;;;;5051775;28;20180;-71
2023/09/12 11:03:28;;;;;;;34.42;24.23;;;22.10;99.90;;;;;;5053656;28;20044;-71
2023/09/12 11:05:55;;;;;;;31.20;22.77;;;22.10;99.90;;;;;;5048404;28;20118;-71
2023/09/12 11:08:21;;;;;;;33.08;23.63;;;22.10;99.90;;;;;;5053681;28;20040;-72
2023/09/12 11:11:21;;;;;;;32.08;21.98;;;22.10;99.90;;;;;;5061963;28;20056;-71
2023/09/12 11:14:02;;;;;;;29.95;21.80;;;22.20;99.90;;;;;;5058214;28;20087;-71
2023/09/12 11:16:28;;;;;;;30.92;20.90;;;22.20;99.90;;;;;;5057452;28;20048;-72
2023/09/12 11:19:18;;;;;;;28.38;20.35;;;22.20;99.90;;;;;;5059588;28;20390;-71
2023/09/12 11:21:51;;;;;;;30.98;21.20;;;22.20;99.90;;;;;;5069182;28;20425;-71
2023/09/12 11:24:18;;;;;;;32.90;21.35;;;22.30;99.90;;;;;;5067920;28;20059;-71
2023/09/12 11:27:00;;;;;;;28.67;19.92;;;22.30;99.90;;;;;;5059335;28;20060;-72
2023/09/12 11:29:38;;;;;;;31.98;19.23;;;22.30;99.90;;;;;;5058915;28;20411;-70
2023/09/12 11:32:05;;;;;;;32.22;19.70;;;22.40;99.90;;;;;;5049530;28;20047;-71
2023/09/12 11:34:41;;;;;;;26.35;18.83;;;22.40;99.90;;;;;;5063317;28;20371;-71
2023/09/12 11:37:07;;;;;;;30.15;19.02;;;22.50;99.90;;;;;;5069653;28;20153;-71
2023/09/12 11:39:34;;;;;;;25.42;17.08;;;22.60;99.90;;;;;;5067917;28;20044;-71
2023/09/12 11:42:02;;;;;;;23.25;16.70;;;22.60;99.90;;;;;;5066928;28;20041;-71
2023/09/12 11:44:30;;;;;;;23.35;16.13;;;22.60;99.90;;;;;;5062229;28;20581;-71
2023/09/12 11:47:02;;;;;;;21.02;15.82;;;22.70;99.90;;;;;;5067105;28;20137;-71
2023/09/12 11:49:38;;;;;;;30.20;15.05;;;22.70;99.90;;;;;;5067718;28;20588;-71
2023/09/12 11:52:16;;;;;;;24.30;15.98;;;22.80;99.90;;;;;;5058543;28;20044;-71
2023/09/12 11:54:43;;;;;;;21.13;14.80;;;22.70;99.90;;;;;;5056674;28;20745;-74
2023/09/12 11:57:15;;;;;;;23.08;15.23;;;22.70;99.90;;;;;;5055191;28;21492;-73
2023/09/12 11:59:45;;;;;;;19.85;14.07;;;22.70;99.90;;;;;;5056792;28;20029;-74
2023/09/12 12:02:11;;;;;;;20.90;13.65;;;22.70;99.90;;;;;;5063436;28;20056;-74
2023/09/12 12:04:38;;;;;;;19.02;13.45;;;22.70;99.90;;;;;;5066961;28;20528;-73
2023/09/12 12:07:04;;;;;;;22.58;11.35;;;22.70;99.90;;;;;;5061226;28;20235;-74
2023/09/12 12:09:30;;;;;;;15.98;10.45;;;22.80;99.90;;;;;;5054715;28;20043;-74
2023/09/12 12:12:00;;;;;;;17.35;10.45;;;22.80;99.90;;;;;;5054740;28;20040;-74
2023/09/12 12:14:26;;;;;;;15.32;9.52;;;22.70;99.90;;;;;;5057097;28;20041;-74
2023/09/12 12:16:52;;;;;;;15.40;10.05;;;22.70;99.90;;;;;;5054152;28;20051;-74
2023/09/12 12:19:18;;;;;;;17.63;12.00;;;22.70;99.90;;;;;;5056180;28;20072;-74
2023/09/12 12:21:44;;;;;;;25.30;12.68;;;22.70;99.90;;;;;;5053576;28;20041;-74
2023/09/12 12:24:13;;;;;;;16.00;11.05;;;22.70;99.90;;;;;;5063630;28;20641;-74
2023/09/12 12:26:44;;;;;;;16.25;9.95;;;22.70;99.90;;;;;;5067501;28;20075;-74
2023/09/12 12:29:11;;;;;;;15.43;9.25;;;22.70;99.90;;;;;;5066681;28;20591;-74
2023/09/12 12:31:37;;;;;;;20.90;11.07;;;22.70;99.90;;;;;;5068453;28;20044;-74